createdAt,value
2019-05-22T13:42:40.176Z,14.28
2019-05-22T13:45:26.026Z,14.90
2019-05-22T13:47:39.520Z,15.84
2019-05-22T13:50:09.965Z,16.55
2019-05-22T13:52:39.149Z,17.28
2019-05-22T13:55:09.676Z,17.86
2019-05-22T13:57:38.379Z,17.97
2019-05-22T14:00:09.495Z,17.98
2019-05-22T14:02:37.531Z,18.25
2019-05-22T14:05:06.333Z,18.48
2019-05-22T14:07:35.116Z,18.53
2019-05-22T14:10:04.336Z,18.68
2019-05-22T14:12:33.058Z,18.97
2019-05-22T14:15:01.777Z,19.63
2019-05-22T14:17:30.424Z,20.16
2019-05-22T14:19:59.073Z,20.09
2019-05-22T14:22:27.707Z,19.75
2019-05-22T14:24:56.364Z,19.06
2019-05-22T14:27:25.075Z,18.67
2019-05-22T14:29:53.748Z,18.29
2019-05-22T14:32:29.720Z,17.85
2019-05-22T14:34:53.125Z,17.23
2019-05-22T14:37:23.119Z,17.23
2019-05-22T14:39:51.769Z,17.13
2019-05-22T14:42:21.209Z,16.80
2019-05-22T14:44:50.288Z,16.74
2019-05-22T14:47:19.379Z,16.61
2019-05-22T14:49:48.019Z,16.46
2019-05-22T14:52:17.153Z,16.36
2019-05-22T14:54:45.926Z,16.35
2019-05-22T14:57:14.561Z,16.29
2019-05-22T14:59:43.218Z,16.36
2019-05-22T15:02:12.227Z,16.38
2019-05-22T15:04:41.142Z,16.30
2019-05-22T15:07:09.811Z,15.97
2019-05-22T15:09:38.496Z,16.00
2019-05-22T15:12:07.216Z,15.85
2019-05-22T15:14:35.908Z,15.87
2019-05-22T15:17:05.007Z,15.85
2019-05-22T15:19:33.720Z,15.87
2019-05-22T15:22:02.636Z,15.56
2019-05-22T15:24:31.643Z,15.33
2019-05-22T15:27:00.734Z,15.39
2019-05-22T15:29:29.514Z,15.33
2019-05-22T15:31:58.345Z,15.20
2019-05-22T15:34:27.114Z,15.33
2019-05-22T15:36:56.397Z,15.37
2019-05-22T15:39:26.847Z,15.35
2019-05-22T15:41:55.791Z,15.42
2019-05-22T15:44:24.674Z,15.20
2019-05-22T15:46:53.413Z,15.20
2019-05-22T15:49:22.635Z,15.14
2019-05-22T15:51:51.978Z,15.24
2019-05-22T15:54:20.713Z,15.33
2019-05-22T15:56:49.508Z,15.54
2019-05-22T15:59:18.604Z,15.79
2019-05-22T16:01:48.552Z,16.09
2019-05-22T16:04:18.086Z,16.35
2019-05-22T16:06:46.791Z,16.39
2019-05-22T16:09:17.267Z,16.34
2019-05-22T16:11:46.194Z,16.19
2019-05-22T16:14:15.118Z,16.14
2019-05-22T16:16:45.156Z,16.01
2019-05-22T16:19:13.920Z,15.90
2019-05-22T16:21:45.171Z,16.05
2019-05-22T16:24:14.094Z,16.32
2019-05-22T16:26:42.916Z,16.50
2019-05-22T16:29:13.408Z,16.62
2019-05-22T16:31:43.043Z,16.68
2019-05-22T16:34:11.785Z,16.62
2019-05-22T16:36:40.444Z,16.62
2019-05-22T16:39:10.605Z,16.95
2019-05-22T16:41:40.267Z,16.72
2019-05-22T16:44:09.387Z,16.56
2019-05-22T16:46:39.891Z,16.43
2019-05-22T16:49:08.690Z,16.45
2019-05-22T16:51:37.399Z,16.44
2019-05-22T16:54:07.172Z,16.15
2019-05-22T16:56:35.893Z,15.93
2019-05-22T16:59:04.935Z,15.98
2019-05-22T17:01:33.575Z,15.95
2019-05-22T17:04:02.823Z,15.88
2019-05-22T17:06:32.297Z,16.03
2019-05-22T17:09:01.379Z,16.25
2019-05-22T17:11:31.495Z,16.16
2019-05-22T17:14:01.386Z,16.30
2019-05-22T17:16:31.833Z,16.08
2019-05-22T17:19:00.614Z,16.06
2019-05-22T17:21:29.734Z,16.17
2019-05-22T17:23:58.607Z,16.44
2019-05-22T17:26:27.625Z,16.32
2019-05-22T17:28:56.360Z,16.30
2019-05-22T17:31:25.840Z,16.35
2019-05-22T17:33:54.612Z,16.34
2019-05-22T17:36:23.828Z,16.39
2019-05-22T17:38:52.759Z,16.45
2019-05-22T17:41:22.232Z,16.34
2019-05-22T17:43:51.296Z,16.28
2019-05-22T17:46:19.955Z,16.15
2019-05-22T17:48:49.048Z,16.03
2019-05-22T17:51:18.471Z,16.04
2019-05-22T17:53:47.232Z,15.92
2019-05-22T17:56:16.130Z,15.75
2019-05-22T17:58:44.794Z,15.77
2019-05-22T18:01:14.575Z,15.60
2019-05-22T18:03:43.333Z,15.45
2019-05-22T18:06:12.319Z,15.45
2019-05-22T18:08:41.287Z,15.40
2019-05-22T18:11:10.528Z,15.37
2019-05-22T18:13:53.711Z,15.35
2019-05-22T18:16:23.215Z,15.31
2019-05-22T18:18:52.069Z,15.29
2019-05-22T18:21:21.299Z,15.17
2019-05-22T18:23:50.321Z,15.18
2019-05-22T18:26:19.359Z,15.11
2019-05-22T18:28:48.018Z,15.09
2019-05-22T18:31:16.712Z,15.07
2019-05-22T18:33:45.422Z,15.09
2019-05-22T18:36:14.085Z,15.09
2019-05-22T18:38:42.739Z,15.09
2019-05-22T18:41:11.385Z,15.06
2019-05-22T18:43:40.496Z,15.05
2019-05-22T18:46:09.498Z,15.08
2019-05-22T18:48:38.178Z,14.93
2019-05-22T18:51:07.435Z,15.01
2019-05-22T18:53:36.186Z,15.10
2019-05-22T18:56:06.544Z,15.03
2019-05-22T18:58:35.275Z,14.98
2019-05-22T19:01:04.214Z,15.06
2019-05-22T19:03:33.318Z,14.94
2019-05-22T19:06:02.263Z,15.00
2019-05-22T19:08:31.598Z,15.04
2019-05-22T19:11:00.443Z,15.01
2019-05-22T19:13:29.224Z,14.90
2019-05-22T19:15:57.978Z,15.08
2019-05-22T19:18:27.309Z,15.08
2019-05-22T19:20:56.212Z,14.99
2019-05-22T19:23:24.867Z,14.97
2019-05-22T19:25:53.521Z,14.99
2019-05-22T19:28:22.557Z,15.03
2019-05-22T19:30:51.397Z,15.01
2019-05-22T19:33:20.799Z,15.02
2019-05-22T19:35:50.283Z,15.00
2019-05-22T19:38:19.107Z,15.01
2019-05-22T19:40:47.736Z,14.86
2019-05-22T19:43:17.497Z,14.92
2019-05-22T19:45:46.305Z,14.90
2019-05-22T19:48:15.332Z,14.83
2019-05-22T19:50:45.547Z,14.80
2019-05-22T19:53:19.145Z,14.73
2019-05-22T19:55:46.968Z,14.79
2019-05-22T19:58:15.628Z,14.79
2019-05-22T20:00:44.886Z,14.76
2019-05-22T20:03:15.544Z,14.70
2019-05-22T20:05:44.703Z,14.67
2019-05-22T20:08:13.430Z,14.58
2019-05-22T20:10:42.548Z,14.31
2019-05-22T20:13:11.606Z,14.10
2019-05-22T20:15:40.612Z,13.86
2019-05-22T20:18:09.709Z,13.80
2019-05-22T20:20:38.444Z,13.74
2019-05-22T20:23:08.780Z,13.66
2019-05-22T20:25:37.880Z,13.54
2019-05-22T20:28:06.884Z,13.54
2019-05-22T20:30:35.645Z,13.47
2019-05-22T20:33:04.756Z,13.46
2019-05-22T20:35:34.307Z,13.50
2019-05-22T20:38:04.265Z,13.45
2019-05-22T20:40:33.773Z,13.36
2019-05-22T20:43:03.707Z,13.32
2019-05-22T20:45:33.409Z,13.34
2019-05-22T20:48:14.383Z,13.30
2019-05-22T20:50:44.003Z,13.21
2019-05-22T20:53:13.322Z,13.19
2019-05-22T20:55:42.326Z,13.17
2019-05-22T20:58:11.698Z,13.18
2019-05-22T21:00:40.802Z,13.09
2019-05-22T21:03:09.704Z,13.09
2019-05-22T21:05:40.076Z,13.11
2019-05-22T21:08:11.492Z,13.16
2019-05-22T21:10:42.541Z,13.15
2019-05-22T21:13:11.424Z,13.03
2019-05-22T21:15:40.310Z,12.90
2019-05-22T21:18:10.049Z,12.78
2019-05-22T21:20:53.550Z,12.68
2019-05-22T21:23:09.824Z,12.64
2019-05-22T21:25:38.637Z,12.51
2019-05-22T21:28:07.381Z,12.49
2019-05-22T21:30:36.074Z,12.33
2019-05-22T21:33:05.169Z,12.26
2019-05-22T21:35:35.027Z,12.13
2019-05-22T21:38:04.359Z,12.00
2019-05-22T21:40:33.391Z,11.99
2019-05-22T21:43:02.317Z,11.96
2019-05-22T21:45:31.551Z,11.87
2019-05-22T21:48:01.015Z,11.83
2019-05-22T21:50:29.647Z,11.80
2019-05-22T21:52:59.121Z,11.69
2019-05-22T21:55:28.110Z,11.60
2019-05-22T21:57:57.007Z,11.54
2019-05-22T22:00:46.702Z,11.49
2019-05-22T22:03:16.986Z,11.43
2019-05-22T22:05:45.759Z,11.38
2019-05-22T22:08:14.409Z,11.29
2019-05-22T22:10:43.124Z,11.23
2019-05-22T22:13:12.584Z,11.25
2019-05-22T22:15:42.660Z,11.25
2019-05-22T22:18:12.106Z,11.21
2019-05-22T22:20:40.956Z,11.15
2019-05-22T22:23:09.970Z,11.13
2019-05-22T22:25:39.479Z,11.05
2019-05-22T22:28:08.191Z,11.01
2019-05-22T22:30:45.602Z,10.99
2019-05-22T22:33:14.707Z,10.95
2019-05-22T22:35:44.301Z,10.91
2019-05-22T22:38:13.607Z,10.84
2019-05-22T22:40:42.724Z,10.85
2019-05-22T22:43:12.248Z,10.80
2019-05-22T22:45:43.774Z,10.76
2019-05-22T22:48:13.299Z,10.72
2019-05-22T22:50:42.795Z,10.72
2019-05-22T22:53:12.015Z,10.76
2019-05-22T22:55:41.327Z,10.73
2019-05-22T22:58:17.085Z,10.75
2019-05-22T23:00:43.299Z,10.82
2019-05-22T23:03:13.567Z,10.78
2019-05-22T23:05:42.770Z,10.74
2019-05-22T23:08:12.590Z,10.73
2019-05-22T23:10:42.442Z,10.75
2019-05-22T23:13:11.739Z,10.75
2019-05-22T23:15:41.104Z,10.68
2019-05-22T23:18:09.934Z,10.64
2019-05-22T23:20:38.759Z,10.63
2019-05-22T23:23:07.892Z,10.60
2019-05-22T23:25:37.813Z,10.63
2019-05-22T23:28:06.464Z,10.60
2019-05-22T23:30:35.435Z,10.58
2019-05-22T23:33:05.740Z,10.54
2019-05-22T23:35:35.334Z,10.58
2019-05-22T23:38:04.656Z,10.56
2019-05-22T23:40:34.252Z,10.56
2019-05-22T23:43:04.616Z,10.56
2019-05-22T23:45:34.938Z,10.55
2019-05-22T23:48:06.558Z,10.54
2019-05-22T23:50:36.697Z,10.49
2019-05-22T23:53:05.784Z,10.44
2019-05-22T23:55:35.239Z,10.38
2019-05-22T23:58:05.610Z,10.28
